createdAt,value
2019-03-26T00:01:06.600Z,102065.67
2019-03-26T00:03:38.403Z,102075.38
2019-03-26T00:06:10.164Z,102074.06
2019-03-26T00:08:41.926Z,102075.81
2019-03-26T00:11:13.609Z,102077.50
2019-03-26T00:13:46.490Z,102068.27
2019-03-26T00:16:18.298Z,102078.88
2019-03-26T00:18:50.051Z,102081.15
2019-03-26T00:21:21.938Z,102076.23
2019-03-26T00:23:54.246Z,102071.77
2019-03-26T00:26:26.287Z,102078.92
2019-03-26T00:28:58.100Z,102080.23
2019-03-26T00:31:29.888Z,102094.44
2019-03-26T00:34:02.719Z,102090.00
2019-03-26T00:36:34.435Z,102084.22
2019-03-26T00:39:07.900Z,102090.54
2019-03-26T00:41:39.615Z,102092.80
2019-03-26T00:44:11.476Z,102086.06
2019-03-26T00:46:43.164Z,102087.87
2019-03-26T00:49:15.479Z,102090.19
2019-03-26T00:51:47.307Z,102087.98
2019-03-26T00:54:19.075Z,102086.67
2019-03-26T00:56:50.757Z,102086.27
2019-03-26T00:59:22.830Z,102084.94
2019-03-26T01:01:54.598Z,102072.99
2019-03-26T01:04:32.851Z,102087.17
2019-03-26T01:06:59.913Z,102082.74
2019-03-26T01:09:31.985Z,102081.45
2019-03-26T01:12:03.886Z,102078.30
2019-03-26T01:14:36.049Z,102088.02
2019-03-26T01:17:08.130Z,102081.88
2019-03-26T01:19:39.811Z,102085.39
2019-03-26T01:22:12.009Z,102084.08
2019-03-26T01:24:43.803Z,102091.56
2019-03-26T01:27:15.482Z,102097.79
2019-03-26T01:29:47.327Z,102090.23
2019-03-26T01:32:19.055Z,102093.80
2019-03-26T01:34:50.832Z,102087.11
2019-03-26T01:37:22.650Z,102086.67
2019-03-26T01:39:54.888Z,102098.67
2019-03-26T01:42:26.696Z,102088.06
2019-03-26T01:44:59.327Z,102099.58
2019-03-26T01:47:31.037Z,102100.94
2019-03-26T01:50:02.916Z,102107.53
2019-03-26T01:52:34.656Z,102090.69
2019-03-26T01:55:06.453Z,102101.79
2019-03-26T01:57:38.209Z,102096.09
2019-03-26T02:00:10.224Z,102092.08
2019-03-26T02:02:42.001Z,102100.97
2019-03-26T02:05:14.127Z,102098.70
2019-03-26T02:07:46.893Z,102099.63
2019-03-26T02:10:18.558Z,102096.08
2019-03-26T02:12:50.706Z,102091.67
2019-03-26T02:15:33.388Z,102088.13
2019-03-26T02:18:06.908Z,102081.47
2019-03-26T02:20:38.712Z,102069.94
2019-03-26T02:23:10.470Z,102077.92
2019-03-26T02:25:43.537Z,102077.02
2019-03-26T02:28:15.321Z,102081.05
2019-03-26T02:30:47.031Z,102080.16
2019-03-26T02:33:18.704Z,102068.17
2019-03-26T02:35:50.867Z,102077.48
2019-03-26T02:38:23.024Z,102085.05
2019-03-26T02:40:54.745Z,102081.53
2019-03-26T02:43:26.471Z,102073.12
2019-03-26T02:45:58.730Z,102071.81
2019-03-26T02:48:30.545Z,102058.48
2019-03-26T02:51:02.270Z,102058.09
2019-03-26T02:53:33.996Z,102055.85
2019-03-26T02:56:05.816Z,102052.77
2019-03-26T02:58:37.918Z,102044.35
2019-03-26T03:01:09.970Z,102042.61
2019-03-26T03:03:42.141Z,102040.41
2019-03-26T03:06:14.197Z,102033.34
2019-03-26T03:08:45.908Z,102024.36
2019-03-26T03:11:17.568Z,102033.75
2019-03-26T03:13:49.391Z,102032.43
2019-03-26T03:16:22.065Z,102022.13
2019-03-26T03:18:54.474Z,102027.50
2019-03-26T03:21:27.038Z,102022.12
2019-03-26T03:23:58.816Z,102027.36
2019-03-26T03:26:30.530Z,102030.01
2019-03-26T03:29:02.810Z,102033.09
2019-03-26T03:31:34.487Z,102022.83
2019-03-26T03:34:06.504Z,102029.86
2019-03-26T03:36:38.203Z,102023.67
2019-03-26T03:39:09.948Z,102027.27
2019-03-26T03:41:41.690Z,102026.33
2019-03-26T03:44:13.426Z,102034.80
2019-03-26T03:46:48.082Z,102025.17
2019-03-26T03:49:23.003Z,102014.91
2019-03-26T03:51:57.656Z,102008.20
2019-03-26T03:54:29.734Z,102009.99
2019-03-26T03:57:03.677Z,102012.67
2019-03-26T03:59:36.151Z,102007.83
2019-03-26T04:02:07.927Z,102000.65
2019-03-26T04:04:39.566Z,101999.70
2019-03-26T04:07:11.303Z,101994.92
2019-03-26T04:09:42.986Z,101997.09
2019-03-26T04:12:14.633Z,101980.66
2019-03-26T04:14:46.383Z,101976.12
2019-03-26T04:17:18.076Z,101983.73
2019-03-26T04:19:50.114Z,101977.14
2019-03-26T04:22:21.809Z,101976.64
2019-03-26T04:24:53.511Z,101971.75
2019-03-26T04:27:25.270Z,101978.91
2019-03-26T04:29:56.978Z,101977.58
2019-03-26T04:32:28.723Z,101980.19
2019-03-26T04:35:00.560Z,101970.44
2019-03-26T04:37:33.638Z,101971.30
2019-03-26T04:40:05.633Z,101976.17
2019-03-26T04:42:37.421Z,101966.83
2019-03-26T04:45:09.131Z,101965.48
2019-03-26T04:47:40.927Z,101970.32
2019-03-26T04:50:12.633Z,101964.95
2019-03-26T04:52:44.866Z,101972.42
2019-03-26T04:55:16.895Z,101983.95
2019-03-26T04:57:48.626Z,101989.25
2019-03-26T05:00:20.838Z,101996.30
2019-03-26T05:02:52.541Z,102004.70
2019-03-26T05:05:24.746Z,102009.01
2019-03-26T05:07:56.434Z,102016.58
2019-03-26T05:10:28.425Z,102024.13
2019-03-26T05:13:00.494Z,102037.91
2019-03-26T05:15:32.408Z,102037.03
2019-03-26T05:18:04.626Z,102044.98
2019-03-26T05:20:36.827Z,102046.67
2019-03-26T05:23:08.515Z,102056.00
2019-03-26T05:25:40.276Z,102054.72
2019-03-26T05:28:11.925Z,102049.84
2019-03-26T05:30:45.197Z,102052.13
2019-03-26T05:33:16.864Z,102057.42
2019-03-26T05:35:51.471Z,102059.67
2019-03-26T05:38:22.974Z,102066.27
2019-03-26T05:40:54.643Z,102065.70
2019-03-26T05:43:26.346Z,102059.01
2019-03-26T05:45:58.448Z,102063.95
2019-03-26T05:48:33.525Z,102072.72
2019-03-26T05:51:05.623Z,102070.65
2019-03-26T05:53:37.450Z,102058.72
2019-03-26T05:56:09.210Z,102061.73
2019-03-26T05:58:40.875Z,102059.86
2019-03-26T06:01:13.074Z,102065.70
2019-03-26T06:04:07.008Z,102061.63
2019-03-26T06:06:38.841Z,102061.09
2019-03-26T06:09:11.051Z,102059.88
2019-03-26T06:11:42.899Z,102066.94
2019-03-26T06:14:15.122Z,102064.69
2019-03-26T06:16:46.902Z,102065.08
2019-03-26T06:19:18.611Z,102055.24
2019-03-26T06:21:50.707Z,102056.19
2019-03-26T06:24:22.540Z,102049.02
2019-03-26T06:26:55.375Z,102045.84
2019-03-26T06:29:27.169Z,102052.98
2019-03-26T06:31:59.521Z,102052.91
2019-03-26T06:34:31.267Z,102048.80
2019-03-26T06:37:03.405Z,102055.11
2019-03-26T06:39:35.311Z,102047.08
2019-03-26T06:42:07.208Z,102044.52
2019-03-26T06:44:39.878Z,102046.70
2019-03-26T06:47:12.062Z,102049.23
2019-03-26T06:49:43.807Z,102054.05
2019-03-26T06:52:15.585Z,102053.03
2019-03-26T06:54:51.420Z,102056.22
2019-03-26T06:57:34.636Z,102056.20
2019-03-26T06:59:57.148Z,102059.20
2019-03-26T07:02:29.053Z,102054.70
2019-03-26T07:05:00.874Z,102052.58
2019-03-26T07:07:32.674Z,102052.08
2019-03-26T07:10:04.636Z,102055.62
2019-03-26T07:12:36.342Z,102050.19
2019-03-26T07:15:39.407Z,102059.38
2019-03-26T07:18:11.166Z,102063.28
2019-03-26T07:20:43.063Z,102076.91
2019-03-26T07:23:14.812Z,102057.98
2019-03-26T07:25:46.569Z,102067.08
2019-03-26T07:28:18.423Z,102064.81
2019-03-26T07:30:50.332Z,102065.71
2019-03-26T07:33:22.497Z,102065.17
2019-03-26T07:35:54.246Z,102065.27
2019-03-26T07:38:26.767Z,102069.66
2019-03-26T07:40:58.521Z,102076.30
2019-03-26T07:43:30.281Z,102087.79
2019-03-26T07:46:02.055Z,102081.63
2019-03-26T07:48:34.159Z,102076.77
2019-03-26T07:51:05.970Z,102076.69
2019-03-26T07:53:37.632Z,102068.70
2019-03-26T07:56:09.737Z,102063.16
2019-03-26T07:58:41.440Z,102057.17
2019-03-26T08:01:13.227Z,102045.22
2019-03-26T08:03:44.889Z,102051.02
2019-03-26T08:07:40.121Z,102048.17
2019-03-26T08:10:12.028Z,102063.71
2019-03-26T08:12:45.405Z,102057.02
2019-03-26T08:15:20.109Z,102060.55
2019-03-26T08:17:50.581Z,102065.48
2019-03-26T08:20:24.054Z,102065.78
2019-03-26T08:22:56.567Z,102074.81
2019-03-26T08:26:10.797Z,102077.89
2019-03-26T08:28:42.460Z,102072.40
2019-03-26T08:31:14.275Z,102082.13
2019-03-26T08:33:46.259Z,102077.82
2019-03-26T08:36:18.860Z,102065.38
2019-03-26T08:38:50.652Z,102076.45
2019-03-26T08:41:22.535Z,102082.34
2019-03-26T08:43:54.295Z,102081.88
2019-03-26T08:46:26.905Z,102092.30
2019-03-26T08:48:58.727Z,102084.34
2019-03-26T08:51:30.703Z,102103.92
2019-03-26T08:54:02.846Z,102104.22
2019-03-26T08:56:34.607Z,102103.50
2019-03-26T08:59:06.257Z,102104.43
2019-03-26T09:01:39.478Z,102095.34
2019-03-26T09:04:11.623Z,102094.80
2019-03-26T09:06:43.804Z,102087.60
2019-03-26T09:09:15.593Z,102098.83
2019-03-26T09:11:47.306Z,102085.68
2019-03-26T09:14:19.104Z,102096.22
2019-03-26T09:16:50.838Z,102104.13
2019-03-26T09:19:23.748Z,102107.02
2019-03-26T09:21:55.600Z,102120.36
2019-03-26T09:24:27.422Z,102114.11
2019-03-26T09:26:59.399Z,102107.30
2019-03-26T09:29:31.346Z,102114.11
2019-03-26T09:32:03.174Z,102108.76
2019-03-26T09:34:35.038Z,102118.13
2019-03-26T09:37:06.822Z,102119.39
2019-03-26T09:39:38.625Z,102110.05
2019-03-26T09:42:10.736Z,102113.61
2019-03-26T09:44:42.564Z,102111.22
2019-03-26T09:47:16.478Z,102124.50
2019-03-26T09:49:48.015Z,102110.78
2019-03-26T09:52:19.799Z,102108.03
2019-03-26T09:54:52.179Z,102103.73
2019-03-26T09:57:24.018Z,102108.14
2019-03-26T09:59:56.024Z,102103.30
2019-03-26T10:02:32.173Z,102107.42
2019-03-26T10:08:07.091Z,102092.08
2019-03-26T10:10:39.033Z,102086.22
2019-03-26T10:13:11.350Z,102086.16
2019-03-26T10:15:43.467Z,102090.70
2019-03-26T10:18:15.235Z,102090.44
2019-03-26T10:20:47.115Z,102096.98
2019-03-26T10:23:21.117Z,102097.08
2019-03-26T10:25:53.067Z,102092.55
2019-03-26T10:28:24.878Z,102099.93
2019-03-26T10:30:56.845Z,102095.55
2019-03-26T10:33:28.663Z,102092.65
2019-03-26T10:36:00.465Z,102094.59
2019-03-26T10:38:32.226Z,102089.41
2019-03-26T10:41:04.044Z,102089.73
2019-03-26T10:43:35.836Z,102095.64
2019-03-26T10:46:08.010Z,102090.33
2019-03-26T10:48:40.652Z,102082.70
2019-03-26T10:54:08.693Z,102078.13
2019-03-26T10:56:40.396Z,102098.37
2019-03-26T10:59:12.185Z,102100.22
2019-03-26T11:01:44.286Z,102103.07
2019-03-26T11:04:16.077Z,102108.17
2019-03-26T11:06:47.733Z,102103.66
2019-03-26T11:09:26.698Z,102101.16
2019-03-26T11:12:13.339Z,102099.14
2019-03-26T11:14:45.245Z,102090.18
2019-03-26T11:17:16.959Z,102108.72
2019-03-26T11:19:50.149Z,102101.27
2019-03-26T11:22:22.351Z,102099.14
2019-03-26T11:24:54.585Z,102102.17
2019-03-26T11:27:39.830Z,102100.91
2019-03-26T11:30:15.225Z,102091.84
2019-03-26T11:32:47.883Z,102091.11
2019-03-26T11:35:22.946Z,102083.42
2019-03-26T11:37:54.957Z,102085.22
2019-03-26T11:40:26.938Z,102079.80
2019-03-26T11:42:59.039Z,102082.43
2019-03-26T11:45:31.286Z,102088.36
2019-03-26T11:48:03.131Z,102074.80
2019-03-26T11:53:28.374Z,102066.61
2019-03-26T11:56:00.421Z,102075.41
2019-03-26T11:58:32.595Z,102082.30
2019-03-26T12:01:04.746Z,102078.38
2019-03-26T12:03:36.773Z,102090.61
2019-03-26T12:06:08.458Z,102074.52
2019-03-26T12:08:40.125Z,102075.84
2019-03-26T12:11:11.882Z,102071.69
2019-03-26T12:13:43.549Z,102077.47
2019-03-26T12:16:15.270Z,102076.17
2019-03-26T12:18:46.995Z,102078.73
2019-03-26T12:21:18.770Z,102079.86
2019-03-26T12:23:50.766Z,102082.11
2019-03-26T12:26:22.513Z,102085.33
2019-03-26T12:28:54.595Z,102085.73
2019-03-26T12:31:26.343Z,102098.11
2019-03-26T12:33:58.520Z,102093.50
2019-03-26T12:36:39.720Z,102095.42
2019-03-26T12:39:04.732Z,102084.23
2019-03-26T12:41:39.453Z,102092.34
2019-03-26T12:44:11.111Z,102096.10
2019-03-26T12:46:43.020Z,102099.34
2019-03-26T12:49:14.724Z,102096.58
2019-03-26T12:51:46.450Z,102108.16
2019-03-26T12:54:18.475Z,102110.49
2019-03-26T12:56:50.160Z,102111.09
2019-03-26T12:59:21.875Z,102090.14
2019-03-26T13:01:53.606Z,102077.19
2019-03-26T13:04:25.339Z,102076.03
2019-03-26T13:06:56.989Z,102069.36
2019-03-26T13:09:28.699Z,102088.13
2019-03-26T13:12:02.876Z,102093.46
2019-03-26T13:14:34.989Z,102094.94
2019-03-26T13:17:06.766Z,102099.22
2019-03-26T13:19:38.626Z,102096.70
2019-03-26T13:22:10.717Z,102104.94
2019-03-26T13:24:42.413Z,102105.95
2019-03-26T13:28:18.350Z,102105.95
2019-03-26T13:30:50.644Z,102101.37
2019-03-26T13:33:22.405Z,102112.16
2019-03-26T13:35:54.221Z,102124.77
2019-03-26T13:38:25.927Z,102121.86
2019-03-26T13:41:01.986Z,102124.93
2019-03-26T13:43:33.689Z,102120.05
2019-03-26T13:46:06.087Z,102133.86
2019-03-26T13:48:37.894Z,102137.36
2019-03-26T13:51:09.685Z,102146.98
2019-03-26T13:53:41.443Z,102151.28
2019-03-26T13:56:13.800Z,102151.56
2019-03-26T13:58:45.503Z,102137.16
2019-03-26T14:01:17.734Z,102117.99
2019-03-26T14:03:50.214Z,102106.16
2019-03-26T14:06:21.947Z,102097.77
2019-03-26T14:08:54.036Z,102086.21
2019-03-26T14:11:25.739Z,102089.22
2019-03-26T14:13:59.168Z,102079.23
2019-03-26T14:16:34.524Z,102078.25
2019-03-26T14:19:08.104Z,102082.23
2019-03-26T14:21:40.876Z,102069.25
2019-03-26T14:24:15.801Z,102064.13
2019-03-26T14:26:51.152Z,102065.34
2019-03-26T14:29:24.846Z,102073.52
2019-03-26T14:31:57.539Z,102071.13
2019-03-26T14:34:29.336Z,102086.72
2019-03-26T14:37:01.660Z,102099.58
2019-03-26T14:39:33.940Z,102099.94
2019-03-26T14:42:06.150Z,102105.64
2019-03-26T14:44:37.945Z,102103.88
2019-03-26T14:47:09.723Z,102112.56
2019-03-26T14:49:41.615Z,102110.88
2019-03-26T14:52:15.241Z,102114.26
2019-03-26T14:54:47.075Z,102111.90
2019-03-26T14:57:18.966Z,102114.69
2019-03-26T14:59:50.691Z,102115.41
2019-03-26T15:02:23.396Z,102111.23
2019-03-26T15:04:55.567Z,102095.52
2019-03-26T15:07:27.408Z,102107.48
2019-03-26T15:09:59.272Z,102092.88
2019-03-26T15:12:31.367Z,102091.30
2019-03-26T15:15:03.401Z,102095.53
2019-03-26T15:17:35.323Z,102080.67
2019-03-26T15:20:08.315Z,102084.79
2019-03-26T15:22:40.130Z,102098.16
2019-03-26T15:25:12.357Z,102097.42
2019-03-26T15:27:44.091Z,102106.86
2019-03-26T15:30:16.487Z,102105.20
2019-03-26T15:32:48.317Z,102107.98
2019-03-26T15:35:20.098Z,102094.08
2019-03-26T15:37:51.876Z,102115.13
2019-03-26T15:40:24.653Z,102117.53
2019-03-26T15:42:56.688Z,102123.86
2019-03-26T15:45:28.763Z,102129.73
2019-03-26T15:48:01.119Z,102123.00
2019-03-26T15:50:41.608Z,102134.49
2019-03-26T15:53:13.693Z,102135.28
2019-03-26T15:55:45.723Z,102146.88
2019-03-26T15:58:22.338Z,102136.64
2019-03-26T16:01:15.575Z,102154.00
2019-03-26T16:03:47.415Z,102154.94
2019-03-26T16:06:20.865Z,102148.44
2019-03-26T16:08:52.926Z,102150.09
2019-03-26T16:11:35.545Z,102154.79
2019-03-26T16:13:58.804Z,102141.31
2019-03-26T16:16:31.287Z,102146.98
2019-03-26T16:19:03.456Z,102145.14
2019-03-26T16:21:35.814Z,102155.66
2019-03-26T16:24:07.767Z,102158.08
2019-03-26T16:26:39.686Z,102148.58
2019-03-26T16:29:11.868Z,102161.73
2019-03-26T16:31:43.743Z,102157.39
2019-03-26T16:34:15.706Z,102157.72
2019-03-26T16:36:58.910Z,102159.27
2019-03-26T16:39:22.502Z,102154.78
2019-03-26T16:41:54.972Z,102153.11
2019-03-26T16:44:26.975Z,102147.59
2019-03-26T16:46:58.867Z,102158.55
2019-03-26T16:49:31.007Z,102167.80
2019-03-26T16:52:02.847Z,102150.41
2019-03-26T16:54:34.922Z,102156.60
2019-03-26T16:57:06.902Z,102166.61
2019-03-26T16:59:38.897Z,102156.70
2019-03-26T17:02:11.352Z,102162.13
2019-03-26T17:04:46.699Z,102161.33
2019-03-26T17:07:17.332Z,102158.41
2019-03-26T17:09:49.223Z,102161.30
2019-03-26T17:12:21.328Z,102167.30
2019-03-26T17:14:53.771Z,102167.08
2019-03-26T17:17:25.703Z,102176.20
2019-03-26T17:19:57.478Z,102172.80
2019-03-26T17:22:29.291Z,102162.73
2019-03-26T17:25:01.143Z,102173.77
2019-03-26T17:27:36.035Z,102181.28
2019-03-26T17:30:09.818Z,102175.17
2019-03-26T17:32:41.663Z,102185.89
2019-03-26T17:35:13.420Z,102177.44
2019-03-26T17:37:58.543Z,102177.53
2019-03-26T17:40:18.773Z,102176.77
2019-03-26T17:42:50.804Z,102195.87
2019-03-26T17:45:22.875Z,102202.48
2019-03-26T17:47:54.743Z,102208.98
2019-03-26T17:50:26.531Z,102208.98
2019-03-26T17:52:58.250Z,102205.38
2019-03-26T17:55:30.900Z,102214.61
2019-03-26T17:58:02.936Z,102210.12
2019-03-26T18:00:45.134Z,102198.94
2019-03-26T18:03:26.376Z,102201.20
2019-03-26T18:05:50.324Z,102203.98
2019-03-26T18:08:24.094Z,102203.58
2019-03-26T18:10:56.661Z,102200.78
2019-03-26T18:13:28.459Z,102217.20
2019-03-26T18:16:00.156Z,102213.99
2019-03-26T18:18:31.960Z,102211.59
2019-03-26T18:21:03.701Z,102221.05
2019-03-26T18:23:36.522Z,102226.37
2019-03-26T18:26:08.460Z,102229.63
2019-03-26T18:28:40.220Z,102215.33
2019-03-26T18:31:11.940Z,102220.59
2019-03-26T18:33:43.707Z,102218.81
2019-03-26T18:36:15.495Z,102217.52
2019-03-26T18:38:47.244Z,102222.50
2019-03-26T18:41:19.187Z,102224.98
2019-03-26T18:43:50.971Z,102219.42
2019-03-26T18:46:22.795Z,102218.81
2019-03-26T18:48:55.565Z,102213.94
2019-03-26T18:51:27.370Z,102220.13
2019-03-26T18:53:59.741Z,102211.41
2019-03-26T18:56:31.494Z,102209.66
2019-03-26T18:59:03.384Z,102201.81
2019-03-26T19:01:35.197Z,102198.48
2019-03-26T19:04:07.079Z,102191.00
2019-03-26T19:06:38.953Z,102190.64
2019-03-26T19:09:10.737Z,102181.92
2019-03-26T19:11:42.697Z,102189.66
2019-03-26T19:14:14.460Z,102176.72
2019-03-26T19:16:46.304Z,102158.46
2019-03-26T19:19:18.096Z,102160.76
2019-03-26T19:21:49.859Z,102159.34
2019-03-26T19:24:21.615Z,102150.42
2019-03-26T19:26:53.398Z,102141.08
2019-03-26T19:29:25.503Z,102138.84
2019-03-26T19:31:57.423Z,102134.38
2019-03-26T19:34:30.035Z,102148.28
2019-03-26T19:37:02.009Z,102134.63
2019-03-26T19:39:33.822Z,102135.07
2019-03-26T19:42:05.727Z,102133.25
2019-03-26T19:44:37.516Z,102127.58
2019-03-26T19:47:09.822Z,102120.66
2019-03-26T19:49:41.688Z,102107.73
2019-03-26T19:52:13.541Z,102111.07
2019-03-26T19:54:50.916Z,102099.17
2019-03-26T19:57:24.613Z,102084.37
2019-03-26T19:59:56.394Z,102068.94
2019-03-26T20:02:28.230Z,102041.72
2019-03-26T20:05:00.046Z,102023.10
2019-03-26T20:07:31.930Z,102002.89
2019-03-26T20:10:04.076Z,101972.08
2019-03-26T20:12:35.954Z,101960.47
2019-03-26T20:15:08.560Z,102961.00
2019-03-26T20:17:41.488Z,102761.17
2019-03-26T20:20:15.147Z,102721.16
2019-03-26T20:22:48.396Z,102696.75
2019-03-26T20:25:20.242Z,102673.09
2019-03-26T20:27:52.502Z,102655.86
2019-03-26T20:30:24.538Z,102630.44
2019-03-26T20:32:56.366Z,102613.40
2019-03-26T20:35:29.236Z,102601.06
2019-03-26T20:38:01.259Z,102588.53
2019-03-26T20:40:33.155Z,102578.77
2019-03-26T20:43:05.066Z,102566.77
2019-03-26T20:45:36.783Z,102558.34
2019-03-26T20:48:08.761Z,102550.38
2019-03-26T20:50:40.881Z,102531.64
2019-03-26T20:53:13.357Z,102517.00
2019-03-26T20:55:54.324Z,102507.25
2019-03-26T20:58:19.095Z,102495.28
2019-03-26T21:00:51.017Z,102493.95
2019-03-26T21:03:23.412Z,102480.66
2019-03-26T21:05:55.274Z,102469.12
2019-03-26T21:08:27.018Z,102465.54
2019-03-26T21:10:58.925Z,102457.53
2019-03-26T21:13:30.547Z,102440.16
2019-03-26T21:16:02.408Z,102423.66
2019-03-26T21:18:34.171Z,102409.48
2019-03-26T21:21:05.920Z,102392.20
2019-03-26T21:23:38.876Z,102369.91
2019-03-26T21:26:11.485Z,102352.52
2019-03-26T21:28:43.423Z,102324.92
2019-03-26T21:31:15.262Z,102297.78
2019-03-26T21:33:47.416Z,102283.30
2019-03-26T21:36:19.197Z,102273.63
2019-03-26T21:38:51.044Z,102260.72
2019-03-26T21:41:22.827Z,102244.86
2019-03-26T21:44:04.234Z,102234.91
2019-03-26T21:46:28.084Z,102225.09
2019-03-26T21:48:59.901Z,102204.72
2019-03-26T21:51:32.058Z,102194.17
2019-03-26T21:54:03.696Z,102193.86
2019-03-26T21:56:35.373Z,102190.31
2019-03-26T21:59:07.050Z,102185.49
2019-03-26T22:01:38.858Z,102176.81
2019-03-26T22:04:10.630Z,102161.17
2019-03-26T22:06:42.307Z,102145.41
2019-03-26T22:09:14.041Z,102124.13
2019-03-26T22:11:50.069Z,102098.97
2019-03-26T22:14:19.287Z,102077.03
2019-03-26T22:16:51.453Z,102066.91
2019-03-26T22:19:28.670Z,102066.83
2019-03-26T22:21:57.029Z,102073.02
2019-03-26T22:24:28.847Z,102073.03
2019-03-26T22:27:00.605Z,102085.20
2019-03-26T22:29:33.298Z,102080.69
2019-03-26T22:32:05.131Z,102098.15
2019-03-26T22:34:36.846Z,102100.23
2019-03-26T22:37:09.451Z,102090.22
2019-03-26T22:39:41.177Z,102092.51
2019-03-26T22:42:13.474Z,102097.53
2019-03-26T22:44:45.510Z,102098.58
2019-03-26T22:47:17.310Z,102107.45
2019-03-26T22:49:49.122Z,102125.86
2019-03-26T22:52:20.917Z,102123.19
2019-03-26T22:54:52.675Z,102121.45
2019-03-26T22:57:24.370Z,102119.98
2019-03-26T22:59:56.067Z,102109.97
2019-03-26T23:02:27.717Z,102113.55
2019-03-26T23:04:59.477Z,102129.14
2019-03-26T23:07:31.239Z,102130.11
2019-03-26T23:10:03.032Z,102140.11
2019-03-26T23:12:35.560Z,102128.13
2019-03-26T23:15:18.382Z,102120.08
2019-03-26T23:17:50.160Z,102121.83
2019-03-26T23:20:21.897Z,102109.41
2019-03-26T23:22:54.111Z,102113.89
2019-03-26T23:25:26.959Z,102125.02
2019-03-26T23:27:58.799Z,102145.05
2019-03-26T23:30:31.146Z,102152.41
2019-03-26T23:33:02.926Z,102151.95
2019-03-26T23:35:35.148Z,102142.37
2019-03-26T23:38:06.931Z,102131.22
2019-03-26T23:40:39.670Z,102129.44
2019-03-26T23:43:11.583Z,102130.75
2019-03-26T23:48:22.288Z,102132.01
2019-03-26T23:50:54.508Z,102121.29
2019-03-26T23:53:26.321Z,102119.46
2019-03-26T23:55:58.085Z,102125.75
2019-03-26T23:58:29.847Z,102117.41
